createdAt,value
2023-02-08T00:01:20.561Z,3.775
2023-02-08T00:04:16.727Z,2.55
2023-02-08T00:07:16.853Z,2.7249999999999996
2023-02-08T00:11:16.098Z,2.975
2023-02-08T00:14:16.603Z,2.6875
2023-02-08T00:17:16.564Z,2.6375
2023-02-08T00:21:17.584Z,2.55
2023-02-08T00:24:16.142Z,2.4000000000000004
2023-02-08T00:27:16.171Z,2.7
2023-02-08T00:31:16.257Z,3.2625
2023-02-08T00:34:16.515Z,2.35
2023-02-08T00:37:16.861Z,2.8125
2023-02-08T00:41:16.186Z,2.4375
2023-02-08T00:44:16.772Z,3.1625
2023-02-08T00:47:16.630Z,3.0625
2023-02-08T00:51:16.000Z,3
2023-02-08T00:54:18.084Z,3.1375
2023-02-08T00:57:16.457Z,2.6125
2023-02-08T01:01:15.873Z,2.9375
2023-02-08T01:04:16.033Z,2.5
2023-02-08T01:07:16.386Z,2.2
2023-02-08T01:11:21.903Z,2.4875
2023-02-08T01:14:17.779Z,3.0875
2023-02-08T01:17:16.775Z,2.1
2023-02-08T01:21:18.036Z,1.8250000000000002
2023-02-08T01:24:16.851Z,2.5
2023-02-08T01:27:16.257Z,1.725
2023-02-08T01:31:19.370Z,2.7125
2023-02-08T01:34:16.818Z,2.7375000000000003
2023-02-08T01:37:16.857Z,2.9
2023-02-08T01:41:18.042Z,5.175000000000001
2023-02-08T01:51:20.537Z,2.225
2023-02-08T01:54:18.447Z,2.1875
2023-02-08T01:57:17.138Z,1.9375
2023-02-08T02:01:16.192Z,2.5625
2023-02-08T02:04:16.246Z,1.6500000000000001
2023-02-08T02:07:17.436Z,2.25
2023-02-08T02:11:16.510Z,2.3375
2023-02-08T02:14:17.052Z,1.8250000000000002
2023-02-08T02:17:18.888Z,1.9625000000000001
2023-02-08T02:21:33.359Z,2
2023-02-08T02:25:00.687Z,1.8875000000000002
2023-02-08T02:27:26.001Z,2.5
2023-02-08T02:43:46.428Z,2.2250000000000005
2023-02-08T02:44:23.565Z,2.025
2023-02-08T02:47:32.647Z,1.8
2023-02-08T02:51:23.496Z,2.2375
2023-02-08T02:54:20.278Z,2.025
2023-02-08T02:57:22.179Z,2.125
2023-02-08T03:01:22.321Z,1.7625
2023-02-08T03:04:18.866Z,2.0999999999999996
2023-02-08T03:07:31.288Z,2.3125
2023-02-08T03:11:19.093Z,2.2125
2023-02-08T03:14:32.902Z,1.9125
2023-02-08T03:17:32.643Z,2.25
2023-02-08T03:21:22.067Z,3
2023-02-08T03:24:27.255Z,1.7750000000000001
2023-02-08T03:27:24.584Z,1.9249999999999998
2023-02-08T03:31:23.458Z,2.8375000000000004
2023-02-08T03:34:20.284Z,2
2023-02-08T03:37:20.503Z,2.0625
2023-02-08T03:41:22.097Z,2.075
2023-02-08T03:44:22.449Z,1.825
2023-02-08T03:47:21.644Z,1.9
2023-02-08T03:51:17.383Z,1.8624999999999998
2023-02-08T03:54:24.709Z,1.8125
2023-02-08T03:57:20.457Z,1.7875
2023-02-08T04:01:22.046Z,1.8125
2023-02-08T04:04:18.725Z,2.625
2023-02-08T04:07:18.388Z,3.2
2023-02-08T04:11:16.225Z,2.9375
2023-02-08T04:14:16.568Z,2.975
2023-02-08T04:17:16.304Z,2.7125000000000004
2023-02-08T04:21:16.413Z,2.4875
2023-02-08T04:24:16.481Z,2.825
2023-02-08T04:27:16.611Z,1.525
2023-02-08T04:31:16.571Z,2.6999999999999997
2023-02-08T04:34:16.896Z,1.8875000000000002
2023-02-08T04:37:16.925Z,2.175
2023-02-08T04:41:15.997Z,1.9125
2023-02-08T04:44:16.469Z,2.1
2023-02-08T04:47:16.338Z,1.7875
2023-02-08T04:51:16.300Z,2.1500000000000004
2023-02-08T04:54:16.188Z,2.3874999999999997
2023-02-08T04:57:16.126Z,2.375
2023-02-08T05:01:16.657Z,1.8499999999999999
2023-02-08T05:04:16.726Z,2.15
2023-02-08T05:07:16.108Z,1.8875
2023-02-08T05:11:19.594Z,1.875
2023-02-08T05:14:16.367Z,1.9125
2023-02-08T05:17:16.301Z,1.9375000000000002
2023-02-08T05:21:15.934Z,2.3375000000000004
2023-02-08T05:24:16.791Z,2.7375
2023-02-08T05:27:17.182Z,1.9125
2023-02-08T05:31:19.132Z,2.6624999999999996
2023-02-08T05:34:17.149Z,1.9874999999999998
2023-02-08T05:37:16.208Z,2.0625
2023-02-08T05:41:17.005Z,2.2875
2023-02-08T05:44:17.231Z,3.125
2023-02-08T05:47:17.147Z,2.1625000000000005
2023-02-08T05:51:16.833Z,2.0125
2023-02-08T05:54:16.848Z,2.1375
2023-02-08T05:57:17.610Z,2.2750000000000004
2023-02-08T06:01:16.524Z,3.325
2023-02-08T06:04:16.249Z,2.3874999999999997
2023-02-08T06:07:16.208Z,1.7125
2023-02-08T06:11:17.146Z,2.6
2023-02-08T06:14:16.485Z,2.2375000000000003
2023-02-08T06:17:16.512Z,2.2624999999999997
2023-02-08T06:21:15.994Z,2.325
2023-02-08T06:24:16.897Z,1.875
2023-02-08T06:27:16.477Z,2.9875000000000003
2023-02-08T06:31:15.783Z,3.25
2023-02-08T06:34:16.084Z,2.8125
2023-02-08T06:37:16.361Z,2.45
2023-02-08T06:41:16.368Z,2.675
2023-02-08T06:44:16.829Z,2.9375
2023-02-08T06:47:16.801Z,2.4125
2023-02-08T06:51:15.786Z,2.0999999999999996
2023-02-08T06:54:16.165Z,5.949999999999999
2023-02-08T06:57:16.359Z,8.225
2023-02-08T07:01:16.625Z,3.675
2023-02-08T07:04:17.128Z,3.1750000000000003
2023-02-08T07:07:17.458Z,2.0875
2023-02-08T07:11:19.092Z,5.050000000000001
2023-02-08T07:14:16.789Z,4.6625
2023-02-08T07:17:16.852Z,2.9875
2023-02-08T07:21:16.287Z,3
2023-02-08T07:24:16.645Z,3.8875
2023-02-08T07:27:17.010Z,2.95
2023-02-08T07:31:16.876Z,3.0250000000000004
2023-02-08T07:34:21.812Z,3.0875000000000004
2023-02-08T07:37:16.541Z,2.6375
2023-02-08T07:41:16.246Z,3.125
2023-02-08T07:44:16.316Z,4.1000000000000005
2023-02-08T07:47:17.225Z,5.7
2023-02-08T07:51:16.369Z,4.8875
2023-02-08T07:54:16.711Z,4.8375
2023-02-08T07:57:21.199Z,3.8375
2023-02-08T08:01:22.417Z,2.4625
2023-02-08T08:04:16.681Z,2.7249999999999996
2023-02-08T08:07:16.240Z,3.5749999999999997
2023-02-08T08:11:17.414Z,3.5250000000000004
2023-02-08T08:14:16.573Z,4.3625
2023-02-08T08:17:16.653Z,3.5125
2023-02-08T08:21:16.994Z,3.6750000000000003
2023-02-08T08:24:16.494Z,3.4625000000000004
2023-02-08T08:27:16.464Z,6.5625
2023-02-08T08:31:17.927Z,5.025
2023-02-08T08:34:16.231Z,4.387499999999999
2023-02-08T08:37:16.237Z,5.6375
2023-02-08T08:41:17.330Z,2.9625
2023-02-08T08:44:16.383Z,2.6375
2023-02-08T08:47:16.445Z,4.7625
2023-02-08T08:51:16.273Z,3.775
2023-02-08T08:54:16.969Z,2.9124999999999996
2023-02-08T08:57:16.946Z,2.575
2023-02-08T09:01:16.008Z,3.625
2023-02-08T09:04:16.277Z,2.875
2023-02-08T09:07:16.638Z,2.8125
2023-02-08T09:11:16.218Z,2.2625
2023-02-08T09:14:16.515Z,2.375
2023-02-08T09:17:16.488Z,2.875
2023-02-08T09:21:18.056Z,3.3
2023-02-08T09:24:16.507Z,2.45
2023-02-08T09:27:16.438Z,2.3
2023-02-08T09:31:19.983Z,2.2
2023-02-08T09:34:16.728Z,2.5875000000000004
2023-02-08T09:37:18.220Z,13.4875
2023-02-08T09:41:31.950Z,18.125
2023-02-08T09:44:22.738Z,6.5875
2023-02-08T09:47:21.773Z,4.925
2023-02-08T09:51:23.994Z,3.5749999999999997
2023-02-08T09:54:21.801Z,2.7375
2023-02-08T09:57:21.331Z,2.3
2023-02-08T10:01:23.217Z,2.5875
2023-02-08T10:04:24.664Z,2.0250000000000004
2023-02-08T10:07:16.907Z,2.8874999999999997
2023-02-08T10:11:33.014Z,2.9875
2023-02-08T10:14:36.373Z,2.3125
2023-02-08T10:17:33.921Z,1.9000000000000001
2023-02-08T10:21:29.553Z,3.4625
2023-02-08T10:24:36.603Z,2.725
2023-02-08T10:27:23.189Z,2.55
2023-02-08T10:31:24.873Z,3.0375
2023-02-08T10:34:29.394Z,2.625
2023-02-08T10:37:18.529Z,2.75
2023-02-08T10:41:22.437Z,5.049999999999999
2023-02-08T10:44:23.903Z,3.4875
2023-02-08T10:47:26.534Z,5.7875
2023-02-08T10:51:20.378Z,2.2750000000000004
2023-02-08T10:54:16.569Z,2.1625
2023-02-08T10:57:21.542Z,2.725
2023-02-08T11:01:16.150Z,1.6749999999999998
2023-02-08T11:04:17.353Z,1.5625
2023-02-08T11:07:19.694Z,1.325
2023-02-08T11:11:15.740Z,1.9749999999999999
2023-02-08T11:14:18.366Z,1.7625
2023-02-08T11:17:32.449Z,1.7375
2023-02-08T11:31:18.167Z,2.8500000000000005
2023-02-08T11:34:24.299Z,2.2875
2023-02-08T11:37:18.874Z,2.25
2023-02-08T11:41:18.767Z,2.7375
2023-02-08T11:44:21.942Z,2.0625
2023-02-08T11:47:23.452Z,2.5249999999999995
2023-02-08T11:51:26.752Z,2.0625
2023-02-08T11:54:34.300Z,1.875
2023-02-08T11:57:19.525Z,8.012500000000001
2023-02-08T12:01:20.086Z,2.5125
2023-02-08T12:04:17.453Z,2.15
2023-02-08T12:07:22.625Z,1.9375
2023-02-08T12:11:22.854Z,7.3
2023-02-08T12:14:31.226Z,15.8875
2023-02-08T12:17:40.370Z,6.9375
2023-02-08T12:21:21.004Z,9.7
2023-02-08T12:24:28.032Z,16.75
2023-02-08T12:27:31.942Z,5.225
2023-02-08T12:31:31.873Z,2.9
2023-02-08T12:34:23.338Z,2.5625
2023-02-08T12:41:21.620Z,1.8624999999999998
2023-02-08T12:44:31.512Z,1.725
2023-02-08T12:47:35.488Z,1.65
2023-02-08T12:51:27.611Z,3.575
2023-02-08T12:54:28.397Z,10.725
2023-02-08T12:57:22.062Z,13.649999999999999
2023-02-08T13:01:20.642Z,8.375
2023-02-08T13:04:21.971Z,3.0875
2023-02-08T13:07:23.248Z,2.1875
2023-02-08T13:11:24.740Z,2.6500000000000004
2023-02-08T13:14:28.692Z,2.2249999999999996
2023-02-08T13:17:21.383Z,3.1
2023-02-08T13:21:21.665Z,3.0125
2023-02-08T13:24:26.578Z,1.8375000000000001
2023-02-08T13:27:19.411Z,3.175
2023-02-08T13:31:22.034Z,4.4
2023-02-08T13:34:21.898Z,1.9749999999999996
2023-02-08T13:37:25.313Z,3.35
2023-02-08T13:41:19.359Z,1.525
2023-02-08T13:44:20.250Z,1.275
2023-02-08T13:47:24.462Z,1.0625
2023-02-08T13:51:53.911Z,1.7375
2023-02-08T13:54:16.162Z,1.5
2023-02-08T13:57:51.463Z,0.8250000000000001
2023-02-08T14:01:19.882Z,2.275
2023-02-08T14:04:36.040Z,2.575
2023-02-08T14:07:27.234Z,1.975
2023-02-08T14:11:29.652Z,1.75
2023-02-08T14:14:19.885Z,1.9000000000000001
2023-02-08T14:17:20.053Z,1.1125
2023-02-08T14:21:28.840Z,1.3625
2023-02-08T14:24:21.754Z,1.4375
2023-02-08T14:27:21.844Z,1.2
2023-02-08T14:31:21.012Z,3.65
2023-02-08T14:34:26.022Z,6.637500000000001
2023-02-08T14:37:28.209Z,16.2
2023-02-08T14:41:44.935Z,22.7875
2023-02-08T14:45:28.449Z,14.149999999999999
2023-02-08T14:47:54.778Z,25.8375
2023-02-08T14:51:23.612Z,33.7875
2023-02-08T14:54:23.251Z,31.1625
2023-02-08T14:57:23.290Z,18.0125
2023-02-08T15:01:20.121Z,6.35
2023-02-08T15:04:19.459Z,7.7
2023-02-08T15:07:28.665Z,10.3625
2023-02-08T15:11:21.925Z,3.525
2023-02-08T15:14:19.386Z,4.699999999999999
2023-02-08T15:17:24.956Z,2.5875
2023-02-08T15:21:18.113Z,5.3875
2023-02-08T15:24:18.343Z,3.7125
2023-02-08T15:27:20.594Z,4.3625
2023-02-08T15:31:19.816Z,3.5875
2023-02-08T15:34:17.431Z,4.8
2023-02-08T15:37:17.515Z,3.675
2023-02-08T15:41:26.396Z,8.3625
2023-02-08T15:44:19.637Z,5.75
2023-02-08T15:47:19.328Z,5.9375
2023-02-08T15:51:18.280Z,5.175000000000001
2023-02-08T15:54:18.681Z,3.95
2023-02-08T15:57:28.395Z,3.575
2023-02-08T16:01:19.522Z,5.7749999999999995
2023-02-08T16:04:18.103Z,4.375
2023-02-08T16:07:24.727Z,3.2750000000000004
2023-02-08T16:11:22.179Z,3.775
2023-02-08T16:14:19.650Z,3.2249999999999996
2023-02-08T16:17:37.965Z,1.775
2023-02-08T16:21:25.913Z,2.7125000000000004
2023-02-08T16:24:22.680Z,1.4625
2023-02-08T16:27:23.996Z,2.875
2023-02-08T16:31:20.891Z,5.125
2023-02-08T16:34:18.273Z,3.05
2023-02-08T16:37:25.697Z,2.7625
2023-02-08T16:41:22.820Z,2.6625
2023-02-08T16:44:22.519Z,10.6
2023-02-08T16:47:35.882Z,6.737500000000001
2023-02-08T16:51:19.827Z,7.325
2023-02-08T16:54:20.807Z,3.7499999999999996
2023-02-08T16:57:17.222Z,3.5125
2023-02-08T17:01:16.213Z,3.5375
2023-02-08T17:04:16.160Z,5.6375
2023-02-08T17:07:17.541Z,15.475
2023-02-08T17:11:16.164Z,9.6625
2023-02-08T17:14:17.063Z,11.087499999999999
2023-02-08T17:17:16.479Z,10.7375
2023-02-08T17:21:16.049Z,14.575
2023-02-08T17:24:17.775Z,13.7375
2023-02-08T17:27:16.237Z,11.625
2023-02-08T17:31:17.089Z,18.7125
2023-02-08T17:34:17.672Z,12.712499999999999
2023-02-08T17:37:16.971Z,9.2375
2023-02-08T17:41:18.015Z,15.65
2023-02-08T17:44:16.994Z,7.525
2023-02-08T17:47:16.548Z,6.55
2023-02-08T17:51:18.519Z,5.975
2023-02-08T17:54:16.980Z,4.2125
2023-02-08T17:57:16.427Z,4.1
2023-02-08T18:01:20.446Z,5.9375
2023-02-08T18:04:17.110Z,7.85
2023-02-08T18:07:17.374Z,3.6
2023-02-08T18:11:19.456Z,4.475
2023-02-08T18:14:18.395Z,4.5875
2023-02-08T18:17:16.590Z,6.2250000000000005
2023-02-08T18:21:18.037Z,6.887499999999999
2023-02-08T18:24:16.204Z,5.2749999999999995
2023-02-08T18:27:16.734Z,4.9625
2023-02-08T18:31:17.815Z,6.6
2023-02-08T18:34:17.708Z,15.35
2023-02-08T18:37:16.536Z,9.950000000000001
2023-02-08T18:41:18.811Z,7.2875
2023-02-08T18:44:18.199Z,5.175
2023-02-08T18:47:17.033Z,6.4375
2023-02-08T18:51:20.309Z,9.712500000000002
2023-02-08T18:54:17.518Z,8.0625
2023-02-08T18:57:16.640Z,14.2125
2023-02-08T19:01:17.855Z,10.7125
2023-02-08T19:04:16.459Z,6.6625
2023-02-08T19:07:16.424Z,7.775
2023-02-08T19:11:18.785Z,5.3125
2023-02-08T19:14:16.719Z,5.75
2023-02-08T19:17:16.826Z,6.2125
2023-02-08T19:21:17.125Z,7.262499999999999
2023-02-08T19:24:16.401Z,4.45
2023-02-08T19:27:16.347Z,5.325
2023-02-08T19:31:18.821Z,5.4375
2023-02-08T19:34:17.445Z,3.9749999999999996
2023-02-08T19:37:16.986Z,3.05
2023-02-08T19:51:16.656Z,5.175000000000001
2023-02-08T19:54:18.749Z,4.4125
2023-02-08T19:57:16.321Z,2.8125
2023-02-08T20:01:18.385Z,3.425
2023-02-08T20:04:16.387Z,5.625
2023-02-08T20:07:16.235Z,5.0375
2023-02-08T20:11:18.584Z,10.3625
2023-02-08T20:14:16.626Z,7.0125
2023-02-08T20:17:16.633Z,5.5625
2023-02-08T20:21:17.320Z,7.7
2023-02-08T20:24:17.036Z,4.325
2023-02-08T20:27:17.213Z,2.9125
2023-02-08T20:31:18.896Z,4.9
2023-02-08T20:34:17.290Z,4.512499999999999
2023-02-08T20:37:20.837Z,3.4000000000000004
2023-02-08T20:41:16.434Z,7.3500000000000005
2023-02-08T20:44:21.252Z,4.95
2023-02-08T20:47:19.708Z,5.65
2023-02-08T20:51:20.365Z,3.7625
2023-02-08T20:54:18.211Z,4.4750000000000005
2023-02-08T20:57:18.626Z,5.4
2023-02-08T21:01:20.230Z,6.75
2023-02-08T21:04:20.250Z,6.7875
2023-02-08T21:07:18.056Z,6.65
2023-02-08T21:11:15.799Z,3.9125
2023-02-08T21:14:20.480Z,4.2749999999999995
2023-02-08T21:17:16.332Z,3.9375
2023-02-08T21:21:16.387Z,5.0625
2023-02-08T21:24:16.162Z,4.825
2023-02-08T21:27:16.062Z,6.3625
2023-02-08T21:31:19.395Z,13.2625
2023-02-08T21:34:19.548Z,9.0125
2023-02-08T21:37:16.670Z,9.6125
2023-02-08T21:41:17.868Z,5.8375
2023-02-08T21:44:16.302Z,36.7625
2023-02-08T21:47:16.092Z,13.8125
2023-02-08T22:01:16.756Z,8.125
2023-02-08T22:04:17.070Z,3.7625
2023-02-08T22:07:17.787Z,5.3125
2023-02-08T22:11:16.457Z,4.1625
2023-02-08T22:14:16.791Z,4.975
2023-02-08T22:17:17.444Z,10.8375
2023-02-08T22:21:15.999Z,5.05
2023-02-08T22:24:16.327Z,3.1375
2023-02-08T22:27:16.427Z,3.2125
2023-02-08T22:31:16.765Z,4.300000000000001
2023-02-08T22:34:17.031Z,4.925
2023-02-08T22:37:16.983Z,3.1875
2023-02-08T22:41:16.999Z,3.275
2023-02-08T22:44:17.231Z,2.8
2023-02-08T22:47:16.649Z,2.8125
2023-02-08T22:51:18.381Z,3.5875000000000004
2023-02-08T22:54:16.920Z,3
2023-02-08T22:57:17.283Z,3.3125
2023-02-08T23:01:18.731Z,5.55
2023-02-08T23:04:16.232Z,10.4375
2023-02-08T23:07:16.479Z,5.75
2023-02-08T23:11:16.818Z,3.5625
2023-02-08T23:14:16.650Z,4.1
2023-02-08T23:17:16.984Z,3.0625
2023-02-08T23:21:19.885Z,3.35
2023-02-08T23:24:16.970Z,4.075
2023-02-08T23:27:16.968Z,5.5625
2023-02-08T23:31:16.762Z,6.3125
2023-02-08T23:34:16.551Z,6
2023-02-08T23:37:16.233Z,5.3375
2023-02-08T23:41:19.128Z,4.875
2023-02-08T23:44:16.907Z,5.85
2023-02-08T23:47:16.867Z,10.7
2023-02-08T23:51:17.914Z,5.5875
2023-02-08T23:54:16.108Z,8.4375
2023-02-08T23:57:15.987Z,6.0125
